Time;durP1;ratioP1;P1;durP2;ratioP2;P2;SDS_P1;SDS_P2;PMS_P1;PMS_P2;Temp;Humidity;BMP_temperature;BMP_pressure;BME280_temperature;BME280_humidity;BME280_pressure;Samples;Min_cycle;Max_cycle;Signal;HPM_P1;HPM_P2
2022/11/20 00:01:45;;;;;;;0.80;0.63;;;19.80;44.50;;;;;;5114044;28;20051;-11
2022/11/20 00:04:11;;;;;;;0.60;0.60;;;19.80;44.50;;;;;;5114145;28;20053;-11
2022/11/20 00:06:37;;;;;;;0.80;0.80;;;19.80;44.50;;;;;;5113898;28;20051;-11
2022/11/20 00:09:05;;;;;;;0.90;0.88;;;19.80;44.50;;;;;;5114075;28;20101;-11
2022/11/20 00:11:31;;;;;;;0.70;0.70;;;19.80;44.50;;;;;;5114111;28;20065;-11
2022/11/20 00:14:00;;;;;;;0.68;0.68;;;19.80;44.50;;;;;;5114007;28;20051;-11
2022/11/20 00:16:27;;;;;;;0.82;0.82;;;19.80;44.50;;;;;;5114139;28;20050;-11
2022/11/20 00:18:54;;;;;;;0.77;0.70;;;19.80;44.50;;;;;;5113664;28;20074;-11
2022/11/20 00:21:22;;;;;;;0.80;0.80;;;19.80;44.50;;;;;;5113989;28;20056;-11
2022/11/20 00:23:49;;;;;;;0.63;0.63;;;19.80;44.50;;;;;;5113811;28;20083;-11
2022/11/20 00:26:17;;;;;;;0.65;0.65;;;19.80;44.50;;;;;;5114183;28;20061;-11
2022/11/20 00:28:44;;;;;;;0.60;0.60;;;19.80;44.50;;;;;;5113675;28;20124;-11
2022/11/20 00:31:15;;;;;;;0.70;0.70;;;19.80;44.50;;;;;;5113810;28;20524;-11
2022/11/20 00:33:42;;;;;;;1.00;0.82;;;19.80;44.50;;;;;;5114152;28;20055;-11
2022/11/20 00:36:11;;;;;;;0.90;0.90;;;19.80;44.50;;;;;;5113753;28;20093;-11
2022/11/20 00:38:37;;;;;;;0.50;0.50;;;19.80;44.50;;;;;;5113460;28;20051;-11
2022/11/20 00:41:06;;;;;;;0.75;0.75;;;19.80;44.50;;;;;;5113609;28;20055;-11
2022/11/20 00:43:32;;;;;;;0.77;0.77;;;19.80;44.50;;;;;;5113866;28;20043;-11
2022/11/20 00:46:02;;;;;;;1.05;0.93;;;19.80;45.00;;;;;;5113736;28;20048;-11
2022/11/20 00:48:28;;;;;;;0.88;0.80;;;19.80;44.50;;;;;;5113285;28;20381;-11
2022/11/20 00:50:53;;;;;;;0.70;0.70;;;19.80;44.50;;;;;;5113715;28;20058;-11
2022/11/20 00:53:20;;;;;;;0.80;0.80;;;19.80;44.50;;;;;;5113742;28;20048;-11
2022/11/20 00:56:03;;;;;;;0.90;0.70;;;19.80;44.50;;;;;;5113443;28;20483;-10
2022/11/20 00:58:32;;;;;;;0.77;0.77;;;19.80;44.50;;;;;;5113220;28;20051;-11
2022/11/20 01:01:04;;;;;;;0.85;0.70;;;19.80;44.50;;;;;;5113276;28;20054;-11
2022/11/20 01:03:44;;;;;;;0.93;0.90;;;19.80;44.50;;;;;;5113276;28;20052;-11
2022/11/20 01:06:11;;;;;;;1.05;0.98;;;19.80;44.50;;;;;;5113284;28;20071;-11
2022/11/20 01:08:37;;;;;;;0.98;0.98;;;19.80;44.50;;;;;;5113245;28;20097;-11
2022/11/20 01:11:07;;;;;;;0.80;0.80;;;19.80;44.50;;;;;;5113507;28;20407;-11
2022/11/20 01:13:38;;;;;;;0.70;0.70;;;19.80;44.50;;;;;;5113244;28;20860;-11
2022/11/20 01:16:04;;;;;;;1.05;1.00;;;19.80;44.50;;;;;;5113409;28;20407;-11
2022/11/20 01:18:30;;;;;;;0.90;0.90;;;19.80;44.50;;;;;;5113365;28;20039;-11
2022/11/20 01:21:02;;;;;;;0.70;0.70;;;19.80;44.50;;;;;;5113106;28;20043;-11
2022/11/20 01:23:31;;;;;;;0.63;0.63;;;19.80;44.50;;;;;;5112952;28;20051;-11
2022/11/20 01:25:56;;;;;;;0.90;0.90;;;19.80;44.50;;;;;;5118826;28;20487;-11
2022/11/20 01:28:22;;;;;;;0.82;0.82;;;19.80;44.50;;;;;;5119806;28;20055;-11
2022/11/20 01:30:47;;;;;;;0.70;0.70;;;19.80;44.50;;;;;;5119757;28;20056;-11
2022/11/20 01:33:13;;;;;;;0.80;0.80;;;19.80;44.50;;;;;;5119744;28;20048;-11
2022/11/20 01:35:39;;;;;;;0.90;0.90;;;19.80;44.50;;;;;;5120048;28;20184;-11
2022/11/20 01:38:04;;;;;;;0.90;0.90;;;19.70;44.40;;;;;;5119608;28;20060;-11
2022/11/20 01:40:30;;;;;;;0.80;0.80;;;19.80;44.40;;;;;;5119787;28;20410;-11
2022/11/20 01:43:21;;;;;;;1.33;0.80;;;19.80;44.50;;;;;;5119589;28;20055;-11
2022/11/20 01:45:58;;;;;;;0.75;0.75;;;19.80;44.50;;;;;;5119574;28;20093;-11
2022/11/20 01:48:28;;;;;;;0.80;0.80;;;19.80;44.50;;;;;;5119957;28;20460;-11
2022/11/20 01:50:55;;;;;;;0.90;0.90;;;19.80;45.00;;;;;;5119491;28;20052;-11
2022/11/20 01:53:26;;;;;;;0.80;0.80;;;19.80;44.50;;;;;;5119755;28;20139;-11
2022/11/20 01:55:55;;;;;;;0.70;0.70;;;19.80;44.50;;;;;;5120100;28;20414;-11
2022/11/20 01:58:27;;;;;;;0.60;0.60;;;19.80;44.50;;;;;;5119522;28;20047;-11
2022/11/20 02:00:52;;;;;;;0.77;0.77;;;19.80;44.50;;;;;;5119461;28;20055;-11
2022/11/20 02:03:19;;;;;;;0.77;0.77;;;19.80;44.50;;;;;;5119926;28;20055;-11
2022/11/20 02:05:52;;;;;;;0.85;0.85;;;19.80;44.50;;;;;;5119966;28;20044;-11
2022/11/20 02:08:19;;;;;;;0.60;0.60;;;19.80;44.50;;;;;;5119686;28;20051;-11
2022/11/20 02:10:45;;;;;;;0.65;0.65;;;19.80;44.50;;;;;;5115484;28;20487;-11
2022/11/20 02:15:55;;;;;;;0.90;0.90;;;19.80;44.50;;;;;;5119552;28;20063;-11
2022/11/20 02:18:22;;;;;;;0.65;0.60;;;19.80;44.40;;;;;;5118975;28;20139;-11
2022/11/20 02:20:53;;;;;;;0.70;0.70;;;19.80;44.40;;;;;;5119124;28;20055;-11
2022/11/20 02:23:26;;;;;;;0.73;0.73;;;19.80;44.40;;;;;;5119224;28;20058;-11
2022/11/20 02:25:53;;;;;;;0.80;0.70;;;19.80;44.40;;;;;;5119287;28;20277;-11
2022/11/20 02:28:19;;;;;;;0.73;0.73;;;19.80;44.40;;;;;;5119603;28;20476;-11
2022/11/20 02:30:45;;;;;;;1.05;0.98;;;19.80;44.40;;;;;;5119021;28;20054;-11
2022/11/20 02:33:10;;;;;;;0.70;0.70;;;19.80;44.40;;;;;;5119005;28;21027;-11
2022/11/20 02:35:41;;;;;;;0.80;0.80;;;19.80;44.90;;;;;;5118059;28;20506;-11
2022/11/20 02:38:07;;;;;;;0.73;0.65;;;19.80;44.40;;;;;;5114866;28;20063;-11
2022/11/20 02:40:33;;;;;;;0.80;0.80;;;19.80;44.40;;;;;;5115652;28;20514;-11
2022/11/20 02:42:58;;;;;;;0.85;0.85;;;19.80;44.40;;;;;;5116048;28;20055;-11
2022/11/20 02:45:25;;;;;;;0.73;0.73;;;19.80;44.40;;;;;;5115819;28;20058;-11
2022/11/20 02:47:51;;;;;;;0.60;0.60;;;19.80;44.40;;;;;;5115437;28;20051;-11
2022/11/20 02:50:17;;;;;;;0.65;0.65;;;19.80;44.40;;;;;;5115719;28;20039;-11
2022/11/20 02:52:43;;;;;;;0.80;0.80;;;19.80;44.40;;;;;;5115571;28;20078;-11
2022/11/20 02:55:09;;;;;;;0.95;0.90;;;19.80;44.40;;;;;;5115363;28;20043;-11
2022/11/20 02:57:34;;;;;;;0.90;0.80;;;19.80;44.40;;;;;;5115232;28;20147;-11
2022/11/20 03:00:00;;;;;;;0.50;0.50;;;19.80;44.40;;;;;;5115065;28;20052;-11
2022/11/20 03:02:29;;;;;;;0.70;0.70;;;19.80;44.40;;;;;;5115203;28;20108;-11
2022/11/20 03:04:54;;;;;;;0.65;0.65;;;19.80;44.40;;;;;;5115063;28;20095;-11
2022/11/20 03:07:20;;;;;;;0.73;0.73;;;19.80;44.40;;;;;;5114911;28;20087;-11
2022/11/20 03:09:46;;;;;;;0.70;0.70;;;19.80;44.30;;;;;;5113709;28;20509;-11
2022/11/20 03:12:11;;;;;;;0.70;0.65;;;19.80;44.40;;;;;;5115100;28;20056;-11
2022/11/20 03:14:38;;;;;;;0.80;0.80;;;19.80;44.40;;;;;;5115651;28;20110;-11
2022/11/20 03:17:04;;;;;;;0.50;0.50;;;19.80;44.40;;;;;;5115028;28;20487;-11
2022/11/20 03:19:30;;;;;;;0.80;0.80;;;19.80;44.40;;;;;;5114637;28;20055;-11
2022/11/20 03:21:55;;;;;;;0.77;0.70;;;19.80;44.40;;;;;;5114650;28;20403;-11
2022/11/20 03:24:21;;;;;;;0.80;0.80;;;19.80;44.40;;;;;;5115143;28;20060;-11
2022/11/20 03:26:46;;;;;;;0.90;0.73;;;19.80;44.40;;;;;;5114540;28;20056;-17
2022/11/20 03:29:12;;;;;;;0.73;0.70;;;19.80;44.40;;;;;;5114856;28;20073;-11
2022/11/20 03:31:40;;;;;;;0.77;0.77;;;19.80;44.40;;;;;;5115180;28;20048;-11
2022/11/20 03:34:07;;;;;;;0.70;0.70;;;19.80;44.40;;;;;;5114750;28;20062;-11
2022/11/20 03:36:33;;;;;;;0.80;0.80;;;19.80;44.40;;;;;;5115242;28;20068;-11
2022/11/20 03:38:59;;;;;;;0.68;0.68;;;19.80;44.40;;;;;;5114607;28;20070;-10
2022/11/20 03:41:29;;;;;;;0.80;0.80;;;19.80;44.40;;;;;;5114600;28;20059;-11
2022/11/20 03:43:56;;;;;;;0.70;0.70;;;19.80;44.40;;;;;;5114638;28;20509;-11
2022/11/20 03:46:22;;;;;;;0.77;0.77;;;19.80;44.40;;;;;;5114510;28;20062;-11
2022/11/20 03:48:49;;;;;;;0.70;0.70;;;19.80;44.40;;;;;;5114144;28;20055;-11
2022/11/20 03:51:20;;;;;;;0.80;0.80;;;19.80;44.40;;;;;;5114404;28;20044;-11
2022/11/20 03:53:46;;;;;;;;;;;19.80;44.40;;;;;;5115147;28;20484;-11
2022/11/20 03:56:14;;;;;;;0.70;0.70;;;19.80;44.40;;;;;;5114377;28;19916;-11
2022/11/20 03:58:40;;;;;;;0.80;0.80;;;19.80;44.40;;;;;;5114200;28;20043;-11
2022/11/20 04:01:08;;;;;;;0.80;0.80;;;19.80;44.40;;;;;;5114299;28;20082;-11
2022/11/20 04:03:35;;;;;;;1.00;0.90;;;19.80;44.40;;;;;;5114182;28;20080;-11
2022/11/20 04:06:13;;;;;;;0.80;0.80;;;19.80;44.40;;;;;;5114272;28;20047;-11
2022/11/20 04:08:40;;;;;;;1.05;0.90;;;19.80;44.40;;;;;;5114159;28;20051;-11
2022/11/20 04:11:21;;;;;;;0.77;0.77;;;19.80;44.40;;;;;;5114128;28;20488;-11
2022/11/20 04:13:49;;;;;;;0.70;0.70;;;19.80;44.90;;;;;;5114193;28;20051;-11
2022/11/20 04:16:16;;;;;;;0.60;0.60;;;19.80;44.40;;;;;;5113938;28;20058;-11
2022/11/20 04:18:43;;;;;;;0.70;0.70;;;19.80;44.40;;;;;;5114305;28;20096;-11
2022/11/20 04:21:10;;;;;;;0.68;0.68;;;19.80;44.40;;;;;;5113849;28;20134;-11
2022/11/20 04:23:36;;;;;;;0.80;0.80;;;19.80;44.40;;;;;;5114001;28;20142;-11
2022/11/20 04:26:04;;;;;;;0.70;0.70;;;19.80;44.40;;;;;;5113897;28;20058;-11
2022/11/20 04:28:30;;;;;;;1.65;0.70;;;19.80;44.40;;;;;;5114431;28;20044;-11
2022/11/20 04:31:05;;;;;;;0.70;0.70;;;19.80;44.40;;;;;;5114336;28;20387;-11
2022/11/20 04:33:31;;;;;;;0.90;0.80;;;19.80;44.40;;;;;;5113806;28;20047;-11
2022/11/20 04:36:05;;;;;;;0.80;0.80;;;19.80;44.40;;;;;;5113786;28;20059;-11
2022/11/20 04:38:30;;;;;;;0.60;0.60;;;19.70;44.40;;;;;;5113629;28;20047;-11
2022/11/20 04:40:58;;;;;;;0.85;0.85;;;19.80;44.40;;;;;;5113431;28;20126;-11
2022/11/20 04:43:24;;;;;;;0.70;0.70;;;19.80;44.40;;;;;;5113600;28;20056;-11
2022/11/20 04:45:56;;;;;;;0.77;0.77;;;19.80;44.40;;;;;;5113659;28;20056;-11
2022/11/20 04:48:23;;;;;;;0.75;0.70;;;19.80;44.30;;;;;;5113880;28;20098;-10
2022/11/20 04:50:48;;;;;;;0.68;0.60;;;19.80;44.40;;;;;;5113289;28;20487;-11
2022/11/20 04:53:14;;;;;;;0.70;0.70;;;19.80;44.40;;;;;;5113532;28;20116;-11
2022/11/20 04:55:40;;;;;;;0.80;0.80;;;19.80;44.40;;;;;;5113399;28;20402;-11
2022/11/20 04:58:06;;;;;;;0.60;0.60;;;19.80;44.40;;;;;;5113494;28;20175;-11
2022/11/20 05:00:32;;;;;;;0.90;0.80;;;19.80;44.40;;;;;;5112297;28;20410;-11
2022/11/20 05:02:57;;;;;;;0.68;0.68;;;19.80;44.40;;;;;;5113373;28;20062;-11
2022/11/20 05:05:23;;;;;;;1.00;0.90;;;19.80;44.40;;;;;;5113924;28;20055;-11
2022/11/20 05:07:49;;;;;;;0.90;0.90;;;19.80;44.40;;;;;;5113223;28;20527;-11
2022/11/20 05:10:15;;;;;;;0.60;0.60;;;19.80;44.40;;;;;;5113469;28;20131;-11
2022/11/20 05:12:40;;;;;;;0.75;0.75;;;19.80;44.40;;;;;;5113326;28;20048;-11
2022/11/20 05:15:06;;;;;;;0.68;0.68;;;19.80;44.40;;;;;;5113223;28;20483;-11
2022/11/20 05:17:32;;;;;;;0.90;0.80;;;19.80;44.40;;;;;;5112841;28;20102;-11
2022/11/20 05:19:58;;;;;;;0.82;0.65;;;19.80;44.40;;;;;;5112890;28;20048;-11
2022/11/20 05:22:24;;;;;;;0.75;0.75;;;19.80;44.40;;;;;;5113367;28;20050;-11
2022/11/20 05:24:49;;;;;;;0.60;0.60;;;19.80;44.30;;;;;;5113053;28;20059;-11
2022/11/20 05:27:15;;;;;;;0.88;0.88;;;19.80;44.30;;;;;;5112828;28;20056;-11
2022/11/20 05:29:42;;;;;;;0.70;0.70;;;19.80;44.30;;;;;;5113090;28;20050;-11
2022/11/20 05:32:09;;;;;;;0.77;0.77;;;19.80;44.40;;;;;;5113356;28;20083;-11
2022/11/20 05:34:35;;;;;;;0.60;0.60;;;19.80;44.30;;;;;;5113344;28;20075;-11
2022/11/20 05:37:02;;;;;;;0.80;0.60;;;19.80;44.40;;;;;;5112971;28;20113;-11
2022/11/20 05:39:27;;;;;;;0.60;0.60;;;19.80;44.40;;;;;;5112605;28;20044;-11
2022/11/20 05:42:29;;;;;;;0.70;0.70;;;19.80;44.40;;;;;;5112520;28;20055;-11
2022/11/20 05:44:40;;;;;;;0.65;0.65;;;19.80;44.40;;;;;;5112706;28;20079;-11
2022/11/20 05:47:09;;;;;;;0.90;0.77;;;19.80;44.30;;;;;;5112802;28;20052;-11
2022/11/20 05:49:35;;;;;;;0.60;0.60;;;19.80;44.30;;;;;;5112645;28;20138;-11
2022/11/20 05:52:00;;;;;;;0.60;0.60;;;19.80;44.30;;;;;;5112571;28;20163;-11
2022/11/20 05:54:26;;;;;;;0.70;0.70;;;19.80;44.30;;;;;;5112725;28;20055;-11
2022/11/20 05:56:52;;;;;;;0.57;0.57;;;19.70;44.30;;;;;;5112475;28;20064;-11
2022/11/20 05:59:17;;;;;;;0.65;0.65;;;19.80;44.30;;;;;;5112823;28;20044;-11
2022/11/20 06:01:43;;;;;;;0.98;0.88;;;19.80;44.30;;;;;;5112492;28;20059;-11
2022/11/20 06:04:08;;;;;;;0.70;0.70;;;19.80;44.30;;;;;;5113131;28;20050;-11
2022/11/20 06:06:34;;;;;;;0.82;0.82;;;19.80;44.30;;;;;;5112597;28;20052;-11
2022/11/20 06:09:00;;;;;;;0.75;0.75;;;19.70;44.30;;;;;;5112366;28;20044;-11
2022/11/20 06:11:25;;;;;;;1.30;0.80;;;19.80;44.30;;;;;;5114884;28;20056;-11
2022/11/20 06:13:51;;;;;;;0.68;0.68;;;19.80;44.30;;;;;;5116276;28;20051;-11
2022/11/20 06:16:19;;;;;;;0.73;0.73;;;19.70;44.30;;;;;;5116114;28;20490;-11
2022/11/20 06:18:45;;;;;;;0.60;0.60;;;19.80;44.30;;;;;;5115605;28;20044;-11
2022/11/20 06:21:16;;;;;;;0.70;0.60;;;19.80;44.30;;;;;;5116128;28;20578;-11
2022/11/20 06:23:42;;;;;;;0.57;0.57;;;19.80;44.30;;;;;;5115872;28;20061;-11
2022/11/20 06:26:15;;;;;;;0.75;0.75;;;19.80;44.30;;;;;;5115785;28;20063;-11
2022/11/20 06:28:41;;;;;;;0.75;0.75;;;19.80;44.30;;;;;;5115572;28;20052;-11
2022/11/20 06:31:07;;;;;;;0.77;0.70;;;19.80;44.30;;;;;;5115714;28;20054;-11
2022/11/20 06:33:33;;;;;;;0.65;0.65;;;19.80;44.40;;;;;;5116000;28;20059;-11
2022/11/20 06:36:00;;;;;;;0.63;0.63;;;19.80;44.30;;;;;;5115900;28;20051;-11
2022/11/20 06:38:27;;;;;;;0.80;0.80;;;19.80;44.30;;;;;;5115422;28;20070;-11
2022/11/20 06:40:52;;;;;;;0.95;0.70;;;19.80;44.30;;;;;;5115611;28;20502;-11
2022/11/20 06:43:18;;;;;;;0.90;0.70;;;19.80;44.30;;;;;;5115857;28;20051;-11
2022/11/20 06:45:43;;;;;;;0.70;0.70;;;19.70;44.30;;;;;;5115987;28;20148;-11
2022/11/20 06:48:09;;;;;;;0.80;0.77;;;19.70;44.30;;;;;;5115523;28;20177;-11
2022/11/20 06:50:38;;;;;;;0.77;0.70;;;19.80;44.80;;;;;;5115294;28;20055;-11
2022/11/20 06:53:04;;;;;;;0.70;0.70;;;19.80;44.30;;;;;;5115704;28;20051;-11
2022/11/20 06:55:31;;;;;;;0.65;0.65;;;19.80;44.20;;;;;;5115339;28;20063;-11
2022/11/20 06:57:57;;;;;;;0.77;0.77;;;19.80;44.20;;;;;;5115539;28;20054;-11
2022/11/20 07:00:22;;;;;;;0.70;0.70;;;19.80;44.20;;;;;;5115116;28;20047;-11
2022/11/20 07:02:48;;;;;;;0.70;0.70;;;19.80;44.30;;;;;;5115263;28;20143;-11
2022/11/20 07:05:13;;;;;;;0.50;0.50;;;19.80;44.20;;;;;;5115211;28;20056;-11
2022/11/20 07:07:39;;;;;;;0.63;0.63;;;19.80;44.30;;;;;;5115520;28;20063;-11
2022/11/20 07:10:05;;;;;;;0.70;0.70;;;19.80;44.30;;;;;;5115162;28;20047;-11
2022/11/20 07:12:31;;;;;;;0.70;0.70;;;19.80;44.20;;;;;;5115368;28;20142;-11
2022/11/20 07:14:56;;;;;;;0.65;0.65;;;19.80;44.20;;;;;;5115425;28;20086;-11
2022/11/20 07:17:22;;;;;;;0.70;0.70;;;19.80;44.20;;;;;;5115583;28;20039;-11
2022/11/20 07:19:48;;;;;;;0.60;0.60;;;19.80;44.70;;;;;;5114763;28;20059;-11
2022/11/20 07:22:14;;;;;;;0.85;0.77;;;19.80;44.20;;;;;;5114242;28;20071;-11
2022/11/20 07:24:40;;;;;;;0.55;0.55;;;19.80;44.60;;;;;;5115003;28;20055;-11
2022/11/20 07:27:05;;;;;;;0.80;0.80;;;19.80;44.20;;;;;;5114882;28;20047;-11
2022/11/20 07:29:31;;;;;;;0.60;0.60;;;19.80;44.20;;;;;;5114660;28;20044;-11
2022/11/20 07:31:57;;;;;;;0.60;0.60;;;19.80;44.20;;;;;;5114687;28;20142;-11
2022/11/20 07:34:23;;;;;;;0.70;0.70;;;19.80;44.20;;;;;;5115040;28;20047;-11
2022/11/20 07:36:48;;;;;;;0.80;0.80;;;19.80;44.20;;;;;;5114599;28;20051;-11
2022/11/20 07:39:14;;;;;;;0.98;0.85;;;19.80;44.20;;;;;;5114729;28;20039;-11
2022/11/20 07:41:39;;;;;;;0.68;0.68;;;19.80;44.20;;;;;;5114680;28;20072;-11
2022/11/20 07:44:05;;;;;;;0.75;0.70;;;19.80;44.20;;;;;;5114605;28;20058;-11
2022/11/20 07:46:31;;;;;;;0.52;0.52;;;19.80;44.20;;;;;;5115061;28;20051;-11
2022/11/20 07:48:56;;;;;;;0.60;0.60;;;19.80;44.20;;;;;;5114540;28;20035;-11
2022/11/20 07:51:22;;;;;;;0.75;0.70;;;19.80;44.20;;;;;;5114520;28;20895;-11
2022/11/20 07:53:51;;;;;;;0.70;0.70;;;19.80;44.10;;;;;;5114522;28;20404;-11
2022/11/20 07:56:16;;;;;;;0.60;0.60;;;19.80;44.20;;;;;;5114462;28;20048;-11
2022/11/20 07:58:42;;;;;;;1.25;0.80;;;19.80;44.20;;;;;;5114487;28;20096;-11
2022/11/20 08:01:08;;;;;;;0.65;0.65;;;19.80;44.10;;;;;;5114308;28;20483;-11
2022/11/20 08:03:34;;;;;;;0.75;0.75;;;19.80;44.10;;;;;;5114247;28;20054;-11
2022/11/20 08:06:01;;;;;;;0.70;0.70;;;19.80;44.10;;;;;;5114210;28;20052;-11
2022/11/20 08:08:27;;;;;;;0.63;0.63;;;19.80;44.10;;;;;;5114444;28;20047;-11
2022/11/20 08:14:11;;;;;;;0.60;0.60;;;19.80;44.20;;;;;;5114273;28;20543;-11
2022/11/20 08:16:23;;;;;;;0.60;0.60;;;19.80;44.10;;;;;;5114315;28;20055;-11
2022/11/20 08:18:49;;;;;;;0.60;0.60;;;19.80;44.10;;;;;;5114360;28;20050;-11
2022/11/20 08:21:15;;;;;;;0.70;0.70;;;19.80;44.10;;;;;;5113975;28;20513;-11
2022/11/20 08:23:40;;;;;;;1.08;0.70;;;19.80;44.10;;;;;;5113968;28;20098;-11
2022/11/20 08:26:06;;;;;;;0.60;0.60;;;19.90;44.60;;;;;;5114222;28;20138;-11
2022/11/20 08:28:32;;;;;;;0.68;0.60;;;19.90;44.10;;;;;;5114130;28;20048;-11
2022/11/20 08:31:02;;;;;;;0.70;0.70;;;19.90;44.10;;;;;;5113877;28;20514;-11
2022/11/20 08:33:28;;;;;;;0.75;0.75;;;19.90;44.10;;;;;;5113483;28;20075;-10
2022/11/20 08:35:57;;;;;;;0.60;0.60;;;19.90;44.10;;;;;;5112898;28;20130;-11
2022/11/20 08:38:23;;;;;;;0.80;0.77;;;19.90;44.10;;;;;;5113456;28;20059;-11
2022/11/20 08:41:23;;;;;;;0.70;0.70;;;19.90;44.00;;;;;;5113700;28;20047;-10
2022/11/20 08:43:34;;;;;;;0.50;0.50;;;19.80;44.00;;;;;;5113600;28;20048;-11
2022/11/20 08:46:00;;;;;;;0.75;0.75;;;19.90;44.10;;;;;;5113604;28;20134;-11
2022/11/20 08:48:25;;;;;;;0.60;0.60;;;19.90;44.10;;;;;;5113523;28;20078;-11
2022/11/20 08:50:51;;;;;;;0.70;0.70;;;19.90;44.00;;;;;;5113620;28;20055;-11
2022/11/20 08:53:17;;;;;;;0.70;0.70;;;19.90;44.00;;;;;;5113813;28;20130;-11
2022/11/20 08:55:42;;;;;;;0.70;0.70;;;19.90;44.00;;;;;;5114104;28;20107;-11
2022/11/20 08:58:08;;;;;;;0.60;0.60;;;19.90;44.00;;;;;;5114037;28;20059;-11
2022/11/20 09:00:34;;;;;;;0.70;0.70;;;19.90;44.00;;;;;;5113559;28;20499;-17
2022/11/20 09:03:00;;;;;;;0.70;0.70;;;20.00;44.00;;;;;;5113680;28;20076;-11
2022/11/20 09:05:26;;;;;;;0.80;0.80;;;19.90;43.90;;;;;;5113575;28;20052;-19
2022/11/20 09:07:55;;;;;;;0.85;0.85;;;20.00;44.00;;;;;;5113342;28;20142;-11
2022/11/20 09:10:21;;;;;;;0.70;0.70;;;19.90;43.90;;;;;;5113270;28;20120;-11
2022/11/20 09:12:50;;;;;;;0.70;0.70;;;19.90;43.90;;;;;;5113479;28;20487;-11
2022/11/20 09:15:16;;;;;;;0.70;0.70;;;19.90;43.90;;;;;;5113164;28;20048;-11
2022/11/20 09:17:41;;;;;;;0.60;0.60;;;19.90;43.90;;;;;;5113130;28;20077;-11
2022/11/20 09:20:08;;;;;;;0.70;0.70;;;19.90;43.90;;;;;;5113023;28;20044;-11
2022/11/20 09:22:34;;;;;;;0.68;0.65;;;19.90;43.90;;;;;;5113422;28;20105;-11
2022/11/20 09:24:59;;;;;;;0.95;0.68;;;19.90;43.90;;;;;;5113101;28;20062;-11
2022/11/20 09:27:25;;;;;;;0.70;0.70;;;19.90;44.00;;;;;;5113091;28;20048;-11
2022/11/20 09:29:50;;;;;;;0.60;0.60;;;19.90;44.00;;;;;;5113438;28;20039;-11
2022/11/20 09:32:16;;;;;;;0.68;0.68;;;19.90;44.00;;;;;;5113536;28;20055;-11
2022/11/20 09:34:43;;;;;;;1.00;0.70;;;19.90;44.00;;;;;;5113036;28;20134;-11
2022/11/20 09:37:09;;;;;;;0.63;0.63;;;19.90;44.00;;;;;;5112997;28;20051;-11
2022/11/20 09:39:38;;;;;;;0.60;0.60;;;19.90;43.90;;;;;;5112760;28;20047;-11
2022/11/20 09:42:31;;;;;;;0.68;0.68;;;19.90;43.90;;;;;;5112925;28;20569;-11
2022/11/20 09:45:13;;;;;;;0.82;0.70;;;19.90;43.90;;;;;;5099129;28;20096;-11
2022/11/20 09:47:51;;;;;;;0.65;0.65;;;19.90;43.90;;;;;;5116623;28;20054;-11
2022/11/20 09:50:41;;;;;;;0.70;0.70;;;19.90;43.90;;;;;;5116354;28;20043;-11
2022/11/20 09:53:18;;;;;;;0.60;0.60;;;19.90;43.90;;;;;;5116663;28;20139;-11
2022/11/20 09:55:46;;;;;;;0.60;0.60;;;19.90;43.90;;;;;;5116902;28;20392;-11
2022/11/20 09:58:34;;;;;;;0.63;0.63;;;19.90;43.90;;;;;;5115909;28;20044;-11
2022/11/20 10:01:11;;;;;;;0.63;0.60;;;19.90;43.90;;;;;;5116451;28;20052;-11
2022/11/20 10:03:52;;;;;;;0.88;0.82;;;19.90;43.90;;;;;;5116557;28;20070;-11
2022/11/20 10:06:23;;;;;;;0.50;0.50;;;19.90;43.90;;;;;;5116295;28;20626;-11
2022/11/20 10:09:11;;;;;;;0.95;0.70;;;20.00;43.90;;;;;;5116129;28;20043;-11
2022/11/20 10:12:02;;;;;;;0.60;0.60;;;20.00;43.80;;;;;;5116092;28;20055;-11
2022/11/20 10:14:41;;;;;;;0.80;0.80;;;20.00;43.80;;;;;;5116148;28;20043;-10
2022/11/20 10:17:51;;;;;;;0.57;0.57;;;20.00;43.80;;;;;;5116026;28;20048;-11
2022/11/20 10:20:23;;;;;;;0.77;0.77;;;20.00;43.70;;;;;;5116435;28;20043;-11
2022/11/20 10:23:10;;;;;;;0.93;0.82;;;20.00;43.70;;;;;;5116445;28;20043;-11
2022/11/20 10:25:42;;;;;;;0.60;0.60;;;20.00;43.80;;;;;;5115768;28;20078;-11
2022/11/20 10:28:20;;;;;;;0.60;0.60;;;20.00;43.80;;;;;;5116226;28;20567;-12
2022/11/20 10:30:50;;;;;;;0.70;0.70;;;20.00;43.70;;;;;;5112199;28;20495;-11
2022/11/20 10:33:21;;;;;;;0.80;0.80;;;20.00;43.70;;;;;;5116364;28;20409;-11
2022/11/20 10:36:00;;;;;;;0.60;0.60;;;20.00;43.70;;;;;;5115685;28;20514;-11
2022/11/20 10:38:36;;;;;;;0.70;0.70;;;20.00;43.70;;;;;;5115959;28;20059;-11
2022/11/20 10:44:12;;;;;;;1.50;0.95;;;20.00;43.60;;;;;;5116217;28;20051;-11
2022/11/20 10:46:44;;;;;;;0.73;0.70;;;20.10;43.60;;;;;;5114818;28;20052;-11
2022/11/20 10:49:16;;;;;;;0.68;0.68;;;20.00;43.60;;;;;;5097152;28;20066;-10
2022/11/20 10:52:00;;;;;;;0.63;0.63;;;20.10;43.60;;;;;;5115734;28;20051;-11
2022/11/20 10:54:31;;;;;;;0.98;0.80;;;20.00;43.60;;;;;;5115395;28;20495;-11
2022/11/20 10:57:26;;;;;;;0.70;0.70;;;20.00;43.60;;;;;;5114238;28;20067;-11
2022/11/20 11:00:02;;;;;;;0.68;0.68;;;20.00;43.60;;;;;;5115153;28;20494;-11
2022/11/20 11:02:41;;;;;;;0.70;0.70;;;20.00;43.70;;;;;;5115367;28;20051;-11
2022/11/20 11:05:25;;;;;;;0.50;0.50;;;20.10;43.60;;;;;;5115288;28;20451;-11
2022/11/20 11:07:55;;;;;;;0.70;0.70;;;20.10;43.60;;;;;;5115217;28;20445;-11
2022/11/20 11:10:28;;;;;;;0.60;0.60;;;20.10;43.60;;;;;;5115079;28;20167;-11
2022/11/20 11:12:54;;;;;;;0.77;0.77;;;20.00;44.10;;;;;;5115434;28;20044;-11
2022/11/20 11:15:38;;;;;;;0.82;0.70;;;20.10;43.60;;;;;;5114788;28;20062;-11
2022/11/20 11:18:05;;;;;;;0.60;0.60;;;20.00;43.60;;;;;;5115098;28;20396;-11
2022/11/20 11:20:31;;;;;;;0.80;0.80;;;20.10;43.60;;;;;;5114807;28;20055;-10
2022/11/20 11:22:58;;;;;;;0.70;0.70;;;20.10;43.60;;;;;;5115110;28;20562;-11
2022/11/20 11:25:33;;;;;;;0.73;0.70;;;20.10;43.60;;;;;;5114915;28;20063;-11
2022/11/20 11:28:03;;;;;;;0.55;0.55;;;20.10;43.60;;;;;;5115357;28;20047;-11
2022/11/20 11:30:39;;;;;;;0.60;0.60;;;20.10;43.60;;;;;;5114869;28;20055;-11
2022/11/20 11:33:09;;;;;;;0.70;0.70;;;20.10;43.60;;;;;;5115069;28;20452;-11
2022/11/20 11:35:44;;;;;;;0.80;0.80;;;20.00;43.60;;;;;;5114768;28;20047;-11
2022/11/20 11:38:18;;;;;;;0.60;0.60;;;20.00;43.60;;;;;;5114762;28;20411;-11
2022/11/20 11:40:44;;;;;;;0.60;0.60;;;20.00;43.60;;;;;;5114946;28;20062;-11
2022/11/20 11:46:24;;;;;;;0.50;0.50;;;20.00;43.60;;;;;;5114312;28;20055;-11
2022/11/20 11:48:57;;;;;;;0.60;0.60;;;20.00;43.60;;;;;;5114443;28;20039;-11
2022/11/20 11:51:26;;;;;;;0.65;0.63;;;20.00;43.70;;;;;;5114483;28;20052;-11
2022/11/20 11:53:52;;;;;;;0.70;0.70;;;20.00;43.70;;;;;;5114670;28;20062;-11
2022/11/20 11:56:17;;;;;;;0.55;0.55;;;20.00;43.70;;;;;;5114434;28;20096;-11
2022/11/20 11:59:06;;;;;;;0.43;0.43;;;20.00;43.70;;;;;;5114413;28;20048;-11
2022/11/20 12:01:38;;;;;;;0.60;0.60;;;20.00;43.70;;;;;;5114337;28;20488;-11
2022/11/20 12:04:13;;;;;;;0.68;0.68;;;20.00;43.80;;;;;;5114633;28;20087;-11
2022/11/20 12:06:42;;;;;;;0.70;0.70;;;20.00;43.80;;;;;;5114494;28;20480;-11
2022/11/20 12:09:11;;;;;;;0.90;0.60;;;20.00;43.80;;;;;;5113811;28;20051;-11
2022/11/20 12:11:54;;;;;;;0.68;0.68;;;20.00;43.80;;;;;;5114163;28;20055;-11
2022/11/20 12:14:34;;;;;;;0.70;0.60;;;20.00;43.80;;;;;;5114199;28;20054;-11
2022/11/20 12:17:01;;;;;;;0.60;0.60;;;20.00;43.80;;;;;;5113962;28;20495;-11
2022/11/20 12:19:30;;;;;;;0.77;0.70;;;20.00;43.70;;;;;;5113838;28;20055;-11
2022/11/20 12:21:59;;;;;;;0.60;0.60;;;20.00;43.70;;;;;;5095349;28;20100;-11
2022/11/20 12:24:32;;;;;;;0.80;0.80;;;20.00;43.70;;;;;;5114011;28;20047;-11
2022/11/20 12:27:00;;;;;;;0.50;0.50;;;20.00;43.70;;;;;;5114421;28;20055;-11
2022/11/20 12:29:48;;;;;;;0.50;0.50;;;20.00;43.70;;;;;;5113725;28;20059;-11
2022/11/20 12:32:29;;;;;;;0.50;0.50;;;20.00;43.70;;;;;;5114199;28;20499;-11
2022/11/20 12:35:18;;;;;;;0.70;0.70;;;20.00;43.70;;;;;;5114151;28;21017;-10
2022/11/20 12:38:06;;;;;;;0.57;0.57;;;20.00;43.70;;;;;;5113734;28;20092;-11
2022/11/20 12:41:03;;;;;;;0.60;0.60;;;20.00;43.80;;;;;;5113614;28;20062;-11
2022/11/20 12:46:21;;;;;;;0.60;0.60;;;20.00;43.70;;;;;;5113674;28;20031;-10
2022/11/20 12:48:52;;;;;;;0.70;0.70;;;20.00;43.70;;;;;;5113499;28;20139;-11
2022/11/20 12:51:47;;;;;;;0.60;0.60;;;20.00;43.70;;;;;;5113693;28;20107;-11
2022/11/20 12:54:32;;;;;;;0.63;0.63;;;20.00;43.70;;;;;;5113764;28;20058;-11
2022/11/20 12:57:30;;;;;;;0.50;0.50;;;20.00;43.70;;;;;;5113153;28;20077;-11
2022/11/20 13:00:19;;;;;;;0.50;0.50;;;20.00;43.70;;;;;;5113939;28;20055;-11
2022/11/20 13:03:14;;;;;;;0.98;0.90;;;20.00;43.70;;;;;;5113291;28;20142;-11
2022/11/20 13:06:17;;;;;;;0.60;0.60;;;20.00;43.70;;;;;;5113313;28;20051;-11
2022/11/20 13:08:54;;;;;;;0.60;0.60;;;20.00;43.70;;;;;;5079524;28;20044;-11
2022/11/20 13:11:41;;;;;;;0.80;0.80;;;20.00;43.80;;;;;;5113617;28;20052;-11
2022/11/20 13:14:40;;;;;;;0.50;0.50;;;20.00;43.70;;;;;;5113293;28;20138;-11
2022/11/20 13:17:21;;;;;;;0.55;0.55;;;20.00;43.70;;;;;;5113298;28;20039;-11